sensor_id;sensor_type;location;lat;lon;timestamp;temperature;humidity
5041;DHT22;2539;52.568;13.364;2022-08-19T00:00:07;20.20;99.90
5041;DHT22;2539;52.568;13.364;2022-08-19T00:02:35;20.20;99.90
5041;DHT22;2539;52.568;13.364;2022-08-19T00:05:01;20.30;99.90
5041;DHT22;2539;52.568;13.364;2022-08-19T00:07:28;20.30;99.90
5041;DHT22;2539;52.568;13.364;2022-08-19T00:09:53;20.30;99.90
5041;DHT22;2539;52.568;13.364;2022-08-19T00:12:19;20.40;99.90
5041;DHT22;2539;52.568;13.364;2022-08-19T00:14:45;20.30;99.90
5041;DHT22;2539;52.568;13.364;2022-08-19T00:17:12;20.40;99.90
5041;DHT22;2539;52.568;13.364;2022-08-19T00:19:39;20.40;99.90
5041;DHT22;2539;52.568;13.364;2022-08-19T00:22:05;20.30;99.90
5041;DHT22;2539;52.568;13.364;2022-08-19T00:24:32;20.30;99.90
5041;DHT22;2539;52.568;13.364;2022-08-19T00:26:58;20.40;99.90
5041;DHT22;2539;52.568;13.364;2022-08-19T00:29:25;20.40;99.90
5041;DHT22;2539;52.568;13.364;2022-08-19T00:31:51;20.40;99.90
5041;DHT22;2539;52.568;13.364;2022-08-19T00:34:22;20.40;99.90
5041;DHT22;2539;52.568;13.364;2022-08-19T00:36:49;20.40;99.90
5041;DHT22;2539;52.568;13.364;2022-08-19T00:39:16;20.50;99.90
5041;DHT22;2539;52.568;13.364;2022-08-19T00:41:43;20.40;99.90
5041;DHT22;2539;52.568;13.364;2022-08-19T00:44:15;20.40;99.90
5041;DHT22;2539;52.568;13.364;2022-08-19T00:46:44;20.40;99.90
5041;DHT22;2539;52.568;13.364;2022-08-19T00:49:22;20.40;99.90
5041;DHT22;2539;52.568;13.364;2022-08-19T00:51:55;20.40;99.90
5041;DHT22;2539;52.568;13.364;2022-08-19T00:54:22;20.40;99.90
5041;DHT22;2539;52.568;13.364;2022-08-19T00:56:49;20.40;99.90
5041;DHT22;2539;52.568;13.364;2022-08-19T00:59:16;20.40;99.90
5041;DHT22;2539;52.568;13.364;2022-08-19T01:01:44;20.40;99.90
5041;DHT22;2539;52.568;13.364;2022-08-19T01:04:12;20.40;99.90
5041;DHT22;2539;52.568;13.364;2022-08-19T01:06:39;20.30;99.90
5041;DHT22;2539;52.568;13.364;2022-08-19T01:09:07;20.30;99.90
5041;DHT22;2539;52.568;13.364;2022-08-19T01:11:36;20.30;99.90
5041;DHT22;2539;52.568;13.364;2022-08-19T01:14:04;20.40;99.90
5041;DHT22;2539;52.568;13.364;2022-08-19T01:16:31;20.30;99.90
5041;DHT22;2539;52.568;13.364;2022-08-19T01:18:58;20.40;99.90
5041;DHT22;2539;52.568;13.364;2022-08-19T01:21:32;20.40;99.90
5041;DHT22;2539;52.568;13.364;2022-08-19T01:24:00;20.30;99.90
5041;DHT22;2539;52.568;13.364;2022-08-19T01:26:27;20.20;99.90
5041;DHT22;2539;52.568;13.364;2022-08-19T01:28:56;20.20;99.90
5041;DHT22;2539;52.568;13.364;2022-08-19T01:31:25;20.20;99.90
5041;DHT22;2539;52.568;13.364;2022-08-19T01:33:53;20.30;99.90
5041;DHT22;2539;52.568;13.364;2022-08-19T01:36:26;20.20;99.90
5041;DHT22;2539;52.568;13.364;2022-08-19T01:38:53;20.20;99.90
5041;DHT22;2539;52.568;13.364;2022-08-19T01:41:19;20.20;99.90
5041;DHT22;2539;52.568;13.364;2022-08-19T01:43:46;20.20;99.90
5041;DHT22;2539;52.568;13.364;2022-08-19T01:46:12;20.20;99.90
5041;DHT22;2539;52.568;13.364;2022-08-19T01:48:41;20.20;99.90
5041;DHT22;2539;52.568;13.364;2022-08-19T01:51:09;20.20;99.90
5041;DHT22;2539;52.568;13.364;2022-08-19T01:53:35;20.20;99.90
5041;DHT22;2539;52.568;13.364;2022-08-19T01:56:03;20.20;99.90
5041;DHT22;2539;52.568;13.364;2022-08-19T01:58:39;20.20;99.90
5041;DHT22;2539;52.568;13.364;2022-08-19T02:01:07;20.20;99.90
5041;DHT22;2539;52.568;13.364;2022-08-19T02:03:34;20.10;99.90
5041;DHT22;2539;52.568;13.364;2022-08-19T02:06:03;20.10;99.90
5041;DHT22;2539;52.568;13.364;2022-08-19T02:08:34;20.10;99.90
5041;DHT22;2539;52.568;13.364;2022-08-19T02:11:00;20.20;99.90
5041;DHT22;2539;52.568;13.364;2022-08-19T02:13:27;20.10;99.90
5041;DHT22;2539;52.568;13.364;2022-08-19T02:15:53;19.90;99.90
5041;DHT22;2539;52.568;13.364;2022-08-19T02:18:19;19.90;99.90
5041;DHT22;2539;52.568;13.364;2022-08-19T02:20:46;19.80;99.90
5041;DHT22;2539;52.568;13.364;2022-08-19T02:23:14;19.80;99.90
5041;DHT22;2539;52.568;13.364;2022-08-19T02:25:41;19.80;99.90
5041;DHT22;2539;52.568;13.364;2022-08-19T02:28:07;19.70;99.90
5041;DHT22;2539;52.568;13.364;2022-08-19T02:30:33;19.60;99.90
5041;DHT22;2539;52.568;13.364;2022-08-19T02:32:59;19.50;99.90
5041;DHT22;2539;52.568;13.364;2022-08-19T02:35:25;19.60;99.90
5041;DHT22;2539;52.568;13.364;2022-08-19T02:37:52;19.60;99.90
5041;DHT22;2539;52.568;13.364;2022-08-19T02:40:36;19.50;99.90
5041;DHT22;2539;52.568;13.364;2022-08-19T02:43:04;19.50;99.90
5041;DHT22;2539;52.568;13.364;2022-08-19T02:45:38;19.50;99.90
5041;DHT22;2539;52.568;13.364;2022-08-19T02:48:05;19.50;99.90
5041;DHT22;2539;52.568;13.364;2022-08-19T02:50:32;19.50;99.90
5041;DHT22;2539;52.568;13.364;2022-08-19T02:52:58;19.50;99.90
5041;DHT22;2539;52.568;13.364;2022-08-19T02:55:27;19.40;99.90
5041;DHT22;2539;52.568;13.364;2022-08-19T02:57:53;19.40;99.90
5041;DHT22;2539;52.568;13.364;2022-08-19T03:00:19;19.50;99.90
5041;DHT22;2539;52.568;13.364;2022-08-19T03:02:46;19.40;99.90
5041;DHT22;2539;52.568;13.364;2022-08-19T03:05:12;19.50;99.90
5041;DHT22;2539;52.568;13.364;2022-08-19T03:07:38;19.40;99.90
5041;DHT22;2539;52.568;13.364;2022-08-19T03:10:05;19.40;99.90
5041;DHT22;2539;52.568;13.364;2022-08-19T03:12:36;19.50;99.90
5041;DHT22;2539;52.568;13.364;2022-08-19T03:15:03;19.50;99.90
5041;DHT22;2539;52.568;13.364;2022-08-19T03:17:29;19.50;99.90
5041;DHT22;2539;52.568;13.364;2022-08-19T03:19:55;19.40;99.90
5041;DHT22;2539;52.568;13.364;2022-08-19T03:22:22;19.40;99.90
5041;DHT22;2539;52.568;13.364;2022-08-19T03:24:48;19.40;99.90
5041;DHT22;2539;52.568;13.364;2022-08-19T03:27:14;19.40;99.90
5041;DHT22;2539;52.568;13.364;2022-08-19T03:29:40;19.40;99.90
5041;DHT22;2539;52.568;13.364;2022-08-19T03:32:06;19.40;99.90
5041;DHT22;2539;52.568;13.364;2022-08-19T03:34:33;19.40;99.90
5041;DHT22;2539;52.568;13.364;2022-08-19T03:37:05;19.40;99.90
5041;DHT22;2539;52.568;13.364;2022-08-19T03:39:32;19.40;99.90
5041;DHT22;2539;52.568;13.364;2022-08-19T03:41:58;19.40;99.90
5041;DHT22;2539;52.568;13.364;2022-08-19T03:44:29;19.40;99.90
5041;DHT22;2539;52.568;13.364;2022-08-19T03:46:57;19.40;99.90
5041;DHT22;2539;52.568;13.364;2022-08-19T03:49:26;19.40;99.90
5041;DHT22;2539;52.568;13.364;2022-08-19T03:51:54;19.40;99.90
5041;DHT22;2539;52.568;13.364;2022-08-19T03:54:22;19.40;99.90
5041;DHT22;2539;52.568;13.364;2022-08-19T03:56:49;19.40;99.90
5041;DHT22;2539;52.568;13.364;2022-08-19T03:59:21;19.40;99.90
5041;DHT22;2539;52.568;13.364;2022-08-19T04:01:48;19.40;99.90
5041;DHT22;2539;52.568;13.364;2022-08-19T04:04:14;19.40;99.90
5041;DHT22;2539;52.568;13.364;2022-08-19T04:06:40;19.40;99.90
5041;DHT22;2539;52.568;13.364;2022-08-19T04:09:09;19.40;99.90
5041;DHT22;2539;52.568;13.364;2022-08-19T04:11:49;19.50;99.90
5041;DHT22;2539;52.568;13.364;2022-08-19T04:14:18;19.50;99.90
5041;DHT22;2539;52.568;13.364;2022-08-19T04:16:46;19.50;99.90
5041;DHT22;2539;52.568;13.364;2022-08-19T04:19:14;19.50;99.90
5041;DHT22;2539;52.568;13.364;2022-08-19T04:21:47;19.50;99.90
5041;DHT22;2539;52.568;13.364;2022-08-19T04:24:14;19.50;99.90
5041;DHT22;2539;52.568;13.364;2022-08-19T04:26:40;19.40;99.90
5041;DHT22;2539;52.568;13.364;2022-08-19T04:29:11;19.50;99.90
5041;DHT22;2539;52.568;13.364;2022-08-19T04:31:37;19.40;99.90
5041;DHT22;2539;52.568;13.364;2022-08-19T04:34:07;19.40;99.90
5041;DHT22;2539;52.568;13.364;2022-08-19T04:36:35;19.50;99.90
5041;DHT22;2539;52.568;13.364;2022-08-19T04:39:06;19.50;99.90
5041;DHT22;2539;52.568;13.364;2022-08-19T04:41:32;19.50;99.90
5041;DHT22;2539;52.568;13.364;2022-08-19T04:44:17;19.50;99.90
5041;DHT22;2539;52.568;13.364;2022-08-19T04:46:48;19.50;99.90
5041;DHT22;2539;52.568;13.364;2022-08-19T04:49:16;19.50;99.90
5041;DHT22;2539;52.568;13.364;2022-08-19T04:51:45;19.50;99.90
5041;DHT22;2539;52.568;13.364;2022-08-19T04:54:11;19.50;99.90
5041;DHT22;2539;52.568;13.364;2022-08-19T04:56:39;19.50;99.90
5041;DHT22;2539;52.568;13.364;2022-08-19T04:59:05;19.50;99.90
5041;DHT22;2539;52.568;13.364;2022-08-19T05:01:32;19.60;99.90
5041;DHT22;2539;52.568;13.364;2022-08-19T05:04:00;19.60;99.90
5041;DHT22;2539;52.568;13.364;2022-08-19T05:06:27;19.60;99.90
5041;DHT22;2539;52.568;13.364;2022-08-19T05:08:54;19.60;99.90
5041;DHT22;2539;52.568;13.364;2022-08-19T05:11:27;19.60;99.90
5041;DHT22;2539;52.568;13.364;2022-08-19T05:13:54;19.60;99.90
5041;DHT22;2539;52.568;13.364;2022-08-19T05:16:22;19.70;99.90
5041;DHT22;2539;52.568;13.364;2022-08-19T05:18:49;19.70;99.90
5041;DHT22;2539;52.568;13.364;2022-08-19T05:21:34;19.70;99.90
5041;DHT22;2539;52.568;13.364;2022-08-19T05:24:21;19.80;99.90
5041;DHT22;2539;52.568;13.364;2022-08-19T05:26:50;19.80;99.90
5041;DHT22;2539;52.568;13.364;2022-08-19T05:29:20;19.80;99.90
5041;DHT22;2539;52.568;13.364;2022-08-19T05:31:47;19.90;99.90
5041;DHT22;2539;52.568;13.364;2022-08-19T05:34:16;19.90;99.90
5041;DHT22;2539;52.568;13.364;2022-08-19T05:36:44;20.00;99.90
5041;DHT22;2539;52.568;13.364;2022-08-19T05:39:16;20.10;99.90
5041;DHT22;2539;52.568;13.364;2022-08-19T05:41:43;20.10;99.90
5041;DHT22;2539;52.568;13.364;2022-08-19T05:44:09;20.20;99.90
5041;DHT22;2539;52.568;13.364;2022-08-19T05:46:37;20.20;99.90
5041;DHT22;2539;52.568;13.364;2022-08-19T05:49:05;20.40;99.90
5041;DHT22;2539;52.568;13.364;2022-08-19T05:51:32;20.40;99.90
5041;DHT22;2539;52.568;13.364;2022-08-19T05:54:03;20.50;99.90
5041;DHT22;2539;52.568;13.364;2022-08-19T05:56:30;20.50;99.90
5041;DHT22;2539;52.568;13.364;2022-08-19T05:58:58;20.60;99.90
5041;DHT22;2539;52.568;13.364;2022-08-19T06:01:25;20.60;99.90
5041;DHT22;2539;52.568;13.364;2022-08-19T06:03:50;20.70;99.90
5041;DHT22;2539;52.568;13.364;2022-08-19T06:06:16;20.70;99.90
5041;DHT22;2539;52.568;13.364;2022-08-19T06:08:42;20.90;99.90
5041;DHT22;2539;52.568;13.364;2022-08-19T06:11:14;21.10;99.90
5041;DHT22;2539;52.568;13.364;2022-08-19T06:13:40;21.20;99.90
5041;DHT22;2539;52.568;13.364;2022-08-19T06:16:07;21.20;99.90
5041;DHT22;2539;52.568;13.364;2022-08-19T06:18:33;21.30;99.90
5041;DHT22;2539;52.568;13.364;2022-08-19T06:20:59;21.30;99.90
5041;DHT22;2539;52.568;13.364;2022-08-19T06:23:26;21.30;99.90
5041;DHT22;2539;52.568;13.364;2022-08-19T06:25:52;21.40;99.90
5041;DHT22;2539;52.568;13.364;2022-08-19T06:28:18;21.40;99.90
5041;DHT22;2539;52.568;13.364;2022-08-19T06:30:44;21.40;99.90
5041;DHT22;2539;52.568;13.364;2022-08-19T06:33:10;21.50;99.90
5041;DHT22;2539;52.568;13.364;2022-08-19T06:35:41;21.60;99.90
5041;DHT22;2539;52.568;13.364;2022-08-19T06:38:07;21.60;99.90
5041;DHT22;2539;52.568;13.364;2022-08-19T06:40:36;21.80;99.90
5041;DHT22;2539;52.568;13.364;2022-08-19T06:43:03;21.90;99.90
5041;DHT22;2539;52.568;13.364;2022-08-19T06:45:30;22.00;99.90
5041;DHT22;2539;52.568;13.364;2022-08-19T06:47:56;22.00;99.90
5041;DHT22;2539;52.568;13.364;2022-08-19T06:50:23;21.90;99.90
5041;DHT22;2539;52.568;13.364;2022-08-19T06:52:49;21.80;99.90
5041;DHT22;2539;52.568;13.364;2022-08-19T06:55:16;21.90;99.90
5041;DHT22;2539;52.568;13.364;2022-08-19T06:57:42;21.90;99.90
5041;DHT22;2539;52.568;13.364;2022-08-19T07:00:09;21.90;99.90
5041;DHT22;2539;52.568;13.364;2022-08-19T07:02:42;22.10;99.90
5041;DHT22;2539;52.568;13.364;2022-08-19T07:05:09;22.10;99.90
5041;DHT22;2539;52.568;13.364;2022-08-19T07:07:35;22.20;99.90
5041;DHT22;2539;52.568;13.364;2022-08-19T07:10:03;22.30;99.90
5041;DHT22;2539;52.568;13.364;2022-08-19T07:12:31;22.30;99.90
5041;DHT22;2539;52.568;13.364;2022-08-19T07:14:59;22.30;99.90
5041;DHT22;2539;52.568;13.364;2022-08-19T07:17:27;22.30;99.90
5041;DHT22;2539;52.568;13.364;2022-08-19T07:19:53;22.10;99.90
5041;DHT22;2539;52.568;13.364;2022-08-19T07:22:18;22.10;99.90
5041;DHT22;2539;52.568;13.364;2022-08-19T07:24:46;22.00;99.90
5041;DHT22;2539;52.568;13.364;2022-08-19T07:27:13;22.20;99.90
5041;DHT22;2539;52.568;13.364;2022-08-19T07:29:39;22.20;99.90
5041;DHT22;2539;52.568;13.364;2022-08-19T07:32:06;22.30;99.90
5041;DHT22;2539;52.568;13.364;2022-08-19T07:34:33;22.30;99.90
5041;DHT22;2539;52.568;13.364;2022-08-19T07:37:05;22.40;99.90
5041;DHT22;2539;52.568;13.364;2022-08-19T07:39:33;22.30;99.90
5041;DHT22;2539;52.568;13.364;2022-08-19T07:42:02;22.20;99.90
5041;DHT22;2539;52.568;13.364;2022-08-19T07:44:29;22.30;99.90
5041;DHT22;2539;52.568;13.364;2022-08-19T07:46:56;22.40;99.90
5041;DHT22;2539;52.568;13.364;2022-08-19T07:49:23;22.50;99.90
5041;DHT22;2539;52.568;13.364;2022-08-19T07:51:56;22.50;99.90
5041;DHT22;2539;52.568;13.364;2022-08-19T07:54:24;22.50;99.90
5041;DHT22;2539;52.568;13.364;2022-08-19T07:56:51;22.60;99.90
5041;DHT22;2539;52.568;13.364;2022-08-19T07:59:19;22.40;99.90
5041;DHT22;2539;52.568;13.364;2022-08-19T08:01:47;22.50;99.90
5041;DHT22;2539;52.568;13.364;2022-08-19T08:04:14;22.60;99.90
5041;DHT22;2539;52.568;13.364;2022-08-19T08:06:59;22.60;99.90
5041;DHT22;2539;52.568;13.364;2022-08-19T08:09:44;22.60;99.90
5041;DHT22;2539;52.568;13.364;2022-08-19T08:12:20;22.40;99.90
5041;DHT22;2539;52.568;13.364;2022-08-19T08:14:52;22.30;99.90
5041;DHT22;2539;52.568;13.364;2022-08-19T08:17:21;22.20;99.90
5041;DHT22;2539;52.568;13.364;2022-08-19T08:19:48;22.00;99.90
5041;DHT22;2539;52.568;13.364;2022-08-19T08:22:19;22.10;99.90
5041;DHT22;2539;52.568;13.364;2022-08-19T08:25:14;22.00;99.90
5041;DHT22;2539;52.568;13.364;2022-08-19T08:27:42;22.20;99.90
5041;DHT22;2539;52.568;13.364;2022-08-19T08:30:14;22.30;99.90
5041;DHT22;2539;52.568;13.364;2022-08-19T08:32:41;22.40;99.90
5041;DHT22;2539;52.568;13.364;2022-08-19T08:35:12;22.50;99.90
5041;DHT22;2539;52.568;13.364;2022-08-19T08:37:39;22.70;99.90
5041;DHT22;2539;52.568;13.364;2022-08-19T08:43:07;22.50;99.90
5041;DHT22;2539;52.568;13.364;2022-08-19T08:45:42;22.40;99.90
5041;DHT22;2539;52.568;13.364;2022-08-19T08:48:19;22.30;99.90
5041;DHT22;2539;52.568;13.364;2022-08-19T08:50:48;22.50;99.90
5041;DHT22;2539;52.568;13.364;2022-08-19T08:53:19;22.50;99.90
5041;DHT22;2539;52.568;13.364;2022-08-19T08:55:46;22.40;99.90
5041;DHT22;2539;52.568;13.364;2022-08-19T08:58:29;22.30;99.90
5041;DHT22;2539;52.568;13.364;2022-08-19T09:00:57;22.40;99.90
5041;DHT22;2539;52.568;13.364;2022-08-19T09:03:26;22.30;99.90
5041;DHT22;2539;52.568;13.364;2022-08-19T09:06:07;22.30;99.90
5041;DHT22;2539;52.568;13.364;2022-08-19T09:09:04;22.40;99.90
5041;DHT22;2539;52.568;13.364;2022-08-19T09:11:56;22.40;99.90
5041;DHT22;2539;52.568;13.364;2022-08-19T09:14:40;22.40;99.90
5041;DHT22;2539;52.568;13.364;2022-08-19T09:17:11;22.60;99.90
5041;DHT22;2539;52.568;13.364;2022-08-19T09:22:15;22.60;99.90
5041;DHT22;2539;52.568;13.364;2022-08-19T09:24:41;22.70;99.90
5041;DHT22;2539;52.568;13.364;2022-08-19T09:27:07;22.80;99.90
5041;DHT22;2539;52.568;13.364;2022-08-19T09:29:34;22.90;99.90
5041;DHT22;2539;52.568;13.364;2022-08-19T09:32:00;23.20;99.90
5041;DHT22;2539;52.568;13.364;2022-08-19T09:34:26;23.10;99.90
5041;DHT22;2539;52.568;13.364;2022-08-19T09:36:55;23.10;99.90
5041;DHT22;2539;52.568;13.364;2022-08-19T09:39:24;23.50;99.90
5041;DHT22;2539;52.568;13.364;2022-08-19T09:41:50;23.40;99.90
5041;DHT22;2539;52.568;13.364;2022-08-19T09:44:16;23.70;99.90
5041;DHT22;2539;52.568;13.364;2022-08-19T09:46:43;23.70;99.90
5041;DHT22;2539;52.568;13.364;2022-08-19T09:49:09;23.80;99.90
5041;DHT22;2539;52.568;13.364;2022-08-19T09:51:35;23.90;99.90
5041;DHT22;2539;52.568;13.364;2022-08-19T09:54:03;23.80;99.90
5041;DHT22;2539;52.568;13.364;2022-08-19T09:56:30;23.50;99.90
5041;DHT22;2539;52.568;13.364;2022-08-19T09:58:58;24.20;99.90
5041;DHT22;2539;52.568;13.364;2022-08-19T10:01:28;24.10;99.90
5041;DHT22;2539;52.568;13.364;2022-08-19T10:03:56;24.10;99.90
5041;DHT22;2539;52.568;13.364;2022-08-19T10:06:27;24.40;99.90
5041;DHT22;2539;52.568;13.364;2022-08-19T10:08:55;24.20;99.90
5041;DHT22;2539;52.568;13.364;2022-08-19T10:11:22;24.10;99.90
5041;DHT22;2539;52.568;13.364;2022-08-19T10:13:48;23.90;99.90
5041;DHT22;2539;52.568;13.364;2022-08-19T10:16:21;24.10;99.90
5041;DHT22;2539;52.568;13.364;2022-08-19T10:18:48;24.20;99.90
5041;DHT22;2539;52.568;13.364;2022-08-19T10:21:22;24.00;99.90
5041;DHT22;2539;52.568;13.364;2022-08-19T10:23:51;23.80;99.90
5041;DHT22;2539;52.568;13.364;2022-08-19T10:26:21;23.80;99.90
5041;DHT22;2539;52.568;13.364;2022-08-19T10:28:49;23.60;99.90
5041;DHT22;2539;52.568;13.364;2022-08-19T10:31:20;23.60;99.90
5041;DHT22;2539;52.568;13.364;2022-08-19T10:33:50;23.50;99.90
5041;DHT22;2539;52.568;13.364;2022-08-19T10:36:21;23.60;99.90
5041;DHT22;2539;52.568;13.364;2022-08-19T10:38:50;23.60;99.90
5041;DHT22;2539;52.568;13.364;2022-08-19T10:41:19;23.40;99.90
5041;DHT22;2539;52.568;13.364;2022-08-19T10:43:46;23.50;99.90
5041;DHT22;2539;52.568;13.364;2022-08-19T10:46:14;23.60;99.90
5041;DHT22;2539;52.568;13.364;2022-08-19T10:48:41;23.70;99.90
5041;DHT22;2539;52.568;13.364;2022-08-19T10:51:08;24.00;99.90
5041;DHT22;2539;52.568;13.364;2022-08-19T10:53:54;24.10;99.90
5041;DHT22;2539;52.568;13.364;2022-08-19T10:56:21;24.00;99.90
5041;DHT22;2539;52.568;13.364;2022-08-19T10:59:06;23.90;99.90
5041;DHT22;2539;52.568;13.364;2022-08-19T11:01:34;24.10;99.90
5041;DHT22;2539;52.568;13.364;2022-08-19T11:04:02;23.60;99.90
5041;DHT22;2539;52.568;13.364;2022-08-19T11:06:31;23.70;99.90
5041;DHT22;2539;52.568;13.364;2022-08-19T11:08:57;23.40;99.90
5041;DHT22;2539;52.568;13.364;2022-08-19T11:11:24;23.30;99.90
5041;DHT22;2539;52.568;13.364;2022-08-19T11:13:50;23.20;99.90
5041;DHT22;2539;52.568;13.364;2022-08-19T11:16:19;23.20;99.90
5041;DHT22;2539;52.568;13.364;2022-08-19T11:18:49;23.40;99.90
5041;DHT22;2539;52.568;13.364;2022-08-19T11:21:21;23.20;99.90
5041;DHT22;2539;52.568;13.364;2022-08-19T11:23:51;23.30;99.90
5041;DHT22;2539;52.568;13.364;2022-08-19T11:26:19;23.30;99.90
5041;DHT22;2539;52.568;13.364;2022-08-19T11:28:46;23.40;99.90
5041;DHT22;2539;52.568;13.364;2022-08-19T11:31:18;23.20;99.90
5041;DHT22;2539;52.568;13.364;2022-08-19T11:33:45;23.20;99.90
5041;DHT22;2539;52.568;13.364;2022-08-19T11:36:12;23.20;99.90
5041;DHT22;2539;52.568;13.364;2022-08-19T11:38:39;23.20;99.90
5041;DHT22;2539;52.568;13.364;2022-08-19T11:41:06;23.10;99.90
5041;DHT22;2539;52.568;13.364;2022-08-19T11:43:36;22.90;99.90
5041;DHT22;2539;52.568;13.364;2022-08-19T11:46:07;22.90;99.90
5041;DHT22;2539;52.568;13.364;2022-08-19T11:48:34;23.00;99.90
5041;DHT22;2539;52.568;13.364;2022-08-19T11:51:04;23.10;99.90
5041;DHT22;2539;52.568;13.364;2022-08-19T11:53:31;23.10;99.90
5041;DHT22;2539;52.568;13.364;2022-08-19T11:55:57;23.10;99.90
5041;DHT22;2539;52.568;13.364;2022-08-19T11:58:24;23.10;99.90
5041;DHT22;2539;52.568;13.364;2022-08-19T12:00:51;23.40;99.90
5041;DHT22;2539;52.568;13.364;2022-08-19T12:03:17;23.70;99.90
5041;DHT22;2539;52.568;13.364;2022-08-19T12:05:45;23.50;99.90
5041;DHT22;2539;52.568;13.364;2022-08-19T12:08:12;23.40;99.90
5041;DHT22;2539;52.568;13.364;2022-08-19T12:10:39;23.40;99.90
5041;DHT22;2539;52.568;13.364;2022-08-19T12:13:05;23.50;99.90
5041;DHT22;2539;52.568;13.364;2022-08-19T12:15:39;23.40;99.90
5041;DHT22;2539;52.568;13.364;2022-08-19T12:18:08;23.40;99.90
5041;DHT22;2539;52.568;13.364;2022-08-19T12:20:38;23.40;99.90
5041;DHT22;2539;52.568;13.364;2022-08-19T12:23:07;23.50;99.90
5041;DHT22;2539;52.568;13.364;2022-08-19T12:25:36;23.20;99.90
5041;DHT22;2539;52.568;13.364;2022-08-19T12:28:03;23.20;99.90
5041;DHT22;2539;52.568;13.364;2022-08-19T12:30:29;23.30;99.90
5041;DHT22;2539;52.568;13.364;2022-08-19T12:32:55;23.70;99.90
5041;DHT22;2539;52.568;13.364;2022-08-19T12:35:22;23.30;99.90
5041;DHT22;2539;52.568;13.364;2022-08-19T12:37:48;23.40;99.90
5041;DHT22;2539;52.568;13.364;2022-08-19T12:40:16;23.20;99.90
5041;DHT22;2539;52.568;13.364;2022-08-19T12:42:43;23.50;99.90
5041;DHT22;2539;52.568;13.364;2022-08-19T12:45:11;23.50;99.90
5041;DHT22;2539;52.568;13.364;2022-08-19T12:47:38;23.80;99.90
5041;DHT22;2539;52.568;13.364;2022-08-19T12:50:06;24.10;99.90
5041;DHT22;2539;52.568;13.364;2022-08-19T12:52:35;23.90;99.90
5041;DHT22;2539;52.568;13.364;2022-08-19T12:55:07;24.40;99.90
5041;DHT22;2539;52.568;13.364;2022-08-19T12:57:34;24.70;99.90
5041;DHT22;2539;52.568;13.364;2022-08-19T13:00:06;24.90;99.90
5041;DHT22;2539;52.568;13.364;2022-08-19T13:02:38;24.80;99.90
5041;DHT22;2539;52.568;13.364;2022-08-19T13:05:05;24.60;99.90
5041;DHT22;2539;52.568;13.364;2022-08-19T13:07:33;24.50;99.90
5041;DHT22;2539;52.568;13.364;2022-08-19T13:09:59;24.30;99.90
5041;DHT22;2539;52.568;13.364;2022-08-19T13:12:25;24.40;99.90
5041;DHT22;2539;52.568;13.364;2022-08-19T13:14:55;24.60;99.90
5041;DHT22;2539;52.568;13.364;2022-08-19T13:17:22;24.30;99.90
5041;DHT22;2539;52.568;13.364;2022-08-19T13:19:48;24.20;99.90
5041;DHT22;2539;52.568;13.364;2022-08-19T13:22:14;23.80;99.90
5041;DHT22;2539;52.568;13.364;2022-08-19T13:24:40;23.70;99.90
5041;DHT22;2539;52.568;13.364;2022-08-19T13:27:05;23.90;99.90
5041;DHT22;2539;52.568;13.364;2022-08-19T13:29:32;24.30;99.90
5041;DHT22;2539;52.568;13.364;2022-08-19T13:32:17;24.30;99.90
5041;DHT22;2539;52.568;13.364;2022-08-19T13:35:03;24.10;99.90
5041;DHT22;2539;52.568;13.364;2022-08-19T13:37:30;24.10;99.90
5041;DHT22;2539;52.568;13.364;2022-08-19T13:40:19;24.20;99.90
5041;DHT22;2539;52.568;13.364;2022-08-19T13:42:50;24.40;99.90
5041;DHT22;2539;52.568;13.364;2022-08-19T13:45:19;24.70;99.90
5041;DHT22;2539;52.568;13.364;2022-08-19T13:47:47;24.50;99.90
5041;DHT22;2539;52.568;13.364;2022-08-19T13:50:22;24.60;99.90
5041;DHT22;2539;52.568;13.364;2022-08-19T13:52:48;24.50;99.90
5041;DHT22;2539;52.568;13.364;2022-08-19T13:55:15;24.30;99.90
5041;DHT22;2539;52.568;13.364;2022-08-19T13:57:42;24.10;99.90
5041;DHT22;2539;52.568;13.364;2022-08-19T14:00:13;24.10;99.90
5041;DHT22;2539;52.568;13.364;2022-08-19T14:02:40;24.00;99.90
5041;DHT22;2539;52.568;13.364;2022-08-19T14:05:09;23.90;99.90
5041;DHT22;2539;52.568;13.364;2022-08-19T14:07:36;23.90;99.90
5041;DHT22;2539;52.568;13.364;2022-08-19T14:10:08;23.70;99.90
5041;DHT22;2539;52.568;13.364;2022-08-19T14:12:35;23.70;99.90
5041;DHT22;2539;52.568;13.364;2022-08-19T14:15:04;23.80;99.90
5041;DHT22;2539;52.568;13.364;2022-08-19T14:17:30;24.10;99.90
5041;DHT22;2539;52.568;13.364;2022-08-19T14:19:57;24.30;99.90
5041;DHT22;2539;52.568;13.364;2022-08-19T14:22:24;24.00;99.90
5041;DHT22;2539;52.568;13.364;2022-08-19T14:24:52;24.00;99.90
5041;DHT22;2539;52.568;13.364;2022-08-19T14:27:19;23.90;99.90
5041;DHT22;2539;52.568;13.364;2022-08-19T14:29:45;24.10;99.90
5041;DHT22;2539;52.568;13.364;2022-08-19T14:32:12;24.20;99.90
5041;DHT22;2539;52.568;13.364;2022-08-19T14:34:38;24.20;99.90
5041;DHT22;2539;52.568;13.364;2022-08-19T14:37:04;24.40;99.90
5041;DHT22;2539;52.568;13.364;2022-08-19T14:39:31;24.10;99.90
5041;DHT22;2539;52.568;13.364;2022-08-19T14:41:58;24.20;99.90
5041;DHT22;2539;52.568;13.364;2022-08-19T14:44:24;24.10;99.90
5041;DHT22;2539;52.568;13.364;2022-08-19T14:46:51;24.10;99.90
5041;DHT22;2539;52.568;13.364;2022-08-19T14:49:17;24.30;99.90
5041;DHT22;2539;52.568;13.364;2022-08-19T14:51:44;24.30;99.90
5041;DHT22;2539;52.568;13.364;2022-08-19T14:54:13;24.20;99.90
5041;DHT22;2539;52.568;13.364;2022-08-19T14:56:40;24.20;99.90
5041;DHT22;2539;52.568;13.364;2022-08-19T14:59:06;24.30;99.90
5041;DHT22;2539;52.568;13.364;2022-08-19T15:01:33;24.20;99.90
5041;DHT22;2539;52.568;13.364;2022-08-19T15:03:59;23.80;99.90
5041;DHT22;2539;52.568;13.364;2022-08-19T15:06:26;23.60;99.90
5041;DHT22;2539;52.568;13.364;2022-08-19T15:08:53;23.60;99.90
5041;DHT22;2539;52.568;13.364;2022-08-19T15:11:22;23.80;99.90
5041;DHT22;2539;52.568;13.364;2022-08-19T15:13:49;24.00;99.90
5041;DHT22;2539;52.568;13.364;2022-08-19T15:16:16;23.80;99.90
5041;DHT22;2539;52.568;13.364;2022-08-19T15:18:44;23.70;99.90
5041;DHT22;2539;52.568;13.364;2022-08-19T15:21:13;23.50;99.90
5041;DHT22;2539;52.568;13.364;2022-08-19T15:23:40;23.60;99.90
5041;DHT22;2539;52.568;13.364;2022-08-19T15:26:06;23.80;99.90
5041;DHT22;2539;52.568;13.364;2022-08-19T15:28:35;23.90;99.90
5041;DHT22;2539;52.568;13.364;2022-08-19T15:31:02;23.80;99.90
5041;DHT22;2539;52.568;13.364;2022-08-19T15:33:31;23.50;99.90
5041;DHT22;2539;52.568;13.364;2022-08-19T15:35:58;23.50;99.90
5041;DHT22;2539;52.568;13.364;2022-08-19T15:38:24;23.30;99.90
5041;DHT22;2539;52.568;13.364;2022-08-19T15:40:52;23.30;99.90
5041;DHT22;2539;52.568;13.364;2022-08-19T15:43:19;23.10;99.90
5041;DHT22;2539;52.568;13.364;2022-08-19T15:45:48;23.10;99.90
5041;DHT22;2539;52.568;13.364;2022-08-19T15:48:15;23.10;99.90
5041;DHT22;2539;52.568;13.364;2022-08-19T15:50:41;23.00;99.90
5041;DHT22;2539;52.568;13.364;2022-08-19T15:53:09;22.90;99.90
5041;DHT22;2539;52.568;13.364;2022-08-19T15:55:41;22.90;99.90
5041;DHT22;2539;52.568;13.364;2022-08-19T15:58:10;22.80;99.90